createdAt,value
2018-08-23T00:00:57.428Z,21.91
2018-08-23T00:01:58.147Z,21.77
2018-08-23T00:02:58.888Z,21.85
2018-08-23T00:03:59.586Z,21.80
2018-08-23T00:05:00.319Z,21.87
2018-08-23T00:06:01.038Z,21.77
2018-08-23T00:07:01.769Z,21.79
2018-08-23T00:08:02.519Z,21.76
2018-08-23T00:09:03.228Z,21.73
2018-08-23T00:10:03.955Z,21.70
2018-08-23T00:11:04.669Z,21.66
2018-08-23T00:12:05.385Z,21.62
2018-08-23T00:13:06.101Z,21.64
2018-08-23T00:14:06.821Z,21.62
2018-08-23T00:15:07.537Z,21.62
2018-08-23T00:16:08.259Z,21.61
2018-08-23T00:17:08.975Z,21.67
2018-08-23T00:18:09.692Z,21.67
2018-08-23T00:19:10.419Z,21.61
2018-08-23T00:20:11.138Z,21.60
2018-08-23T00:21:11.854Z,21.57
2018-08-23T00:22:12.583Z,21.58
2018-08-23T00:23:13.298Z,21.52
2018-08-23T00:24:14.014Z,21.51
2018-08-23T00:25:14.730Z,21.46
2018-08-23T00:26:15.457Z,21.42
2018-08-23T00:27:16.190Z,21.48
2018-08-23T00:28:16.898Z,21.40
2018-08-23T00:29:17.616Z,21.40
2018-08-23T00:30:18.330Z,21.43
2018-08-23T00:31:19.045Z,21.43
2018-08-23T00:32:19.763Z,21.45
2018-08-23T00:33:20.475Z,21.42
2018-08-23T00:34:21.190Z,21.32
2018-08-23T00:35:21.905Z,21.33
2018-08-23T00:36:22.620Z,21.35
2018-08-23T00:37:23.338Z,21.30
2018-08-23T00:38:24.049Z,21.35
2018-08-23T00:39:24.767Z,21.27
2018-08-23T00:40:25.496Z,21.22
2018-08-23T00:41:26.212Z,21.18
2018-08-23T00:42:26.928Z,21.24
2018-08-23T00:43:27.647Z,21.21
2018-08-23T00:44:28.362Z,21.12
2018-08-23T00:45:29.076Z,21.14
2018-08-23T00:46:29.791Z,21.12
2018-08-23T00:47:30.519Z,21.12
2018-08-23T00:48:31.248Z,21.11
2018-08-23T00:49:31.994Z,21.05
2018-08-23T00:50:32.681Z,21.00
2018-08-23T00:51:33.403Z,20.97
2018-08-23T00:52:34.118Z,20.99
2018-08-23T00:53:34.842Z,21.00
2018-08-23T00:54:35.556Z,21.00
2018-08-23T00:55:36.283Z,20.97
2018-08-23T00:56:36.997Z,20.99
2018-08-23T00:57:37.711Z,21.03
2018-08-23T00:58:38.441Z,20.99
2018-08-23T00:59:39.169Z,20.88
2018-08-23T01:00:39.895Z,20.87
2018-08-23T01:01:40.612Z,20.87
2018-08-23T01:02:41.328Z,20.82
2018-08-23T01:03:42.057Z,20.80
2018-08-23T01:04:42.775Z,20.84
2018-08-23T01:05:43.503Z,20.81
2018-08-23T01:06:44.216Z,20.78
2018-08-23T01:07:44.934Z,20.84
2018-08-23T01:08:45.659Z,20.80
2018-08-23T01:09:46.374Z,20.84
2018-08-23T01:10:47.102Z,20.77
2018-08-23T01:11:47.820Z,20.74
2018-08-23T01:12:48.536Z,20.75
2018-08-23T01:13:49.254Z,20.72
2018-08-23T01:14:49.968Z,20.72
2018-08-23T01:15:50.695Z,20.67
2018-08-23T01:16:51.413Z,20.74
2018-08-23T01:17:52.126Z,20.60
2018-08-23T01:18:52.842Z,20.60
2018-08-23T01:19:53.570Z,20.72
2018-08-23T01:20:54.298Z,20.67
2018-08-23T01:21:55.014Z,20.58
2018-08-23T01:22:55.742Z,20.66
2018-08-23T01:23:56.458Z,20.58
2018-08-23T01:24:57.174Z,20.58
2018-08-23T01:25:57.889Z,20.62
2018-08-23T01:26:58.604Z,20.58
2018-08-23T01:27:59.333Z,20.60
2018-08-23T01:29:00.049Z,20.55
2018-08-23T01:30:00.777Z,20.60
2018-08-23T01:31:01.493Z,20.51
2018-08-23T01:32:02.206Z,20.47
2018-08-23T01:33:02.925Z,20.44
2018-08-23T01:34:03.635Z,20.50
2018-08-23T01:35:04.350Z,20.44
2018-08-23T01:36:05.062Z,20.48
2018-08-23T01:37:05.781Z,20.44
2018-08-23T01:38:06.491Z,20.48
2018-08-23T01:39:07.207Z,20.40
2018-08-23T01:40:07.932Z,20.40
2018-08-23T01:41:08.649Z,20.40
2018-08-23T01:42:09.363Z,20.39
2018-08-23T01:43:10.078Z,20.36
2018-08-23T01:44:10.790Z,20.32
2018-08-23T01:45:11.506Z,20.29
2018-08-23T01:46:12.219Z,20.34
2018-08-23T01:47:12.934Z,20.31
2018-08-23T01:48:13.651Z,20.25
2018-08-23T01:49:14.363Z,20.28
2018-08-23T01:50:15.077Z,20.22
2018-08-23T01:51:15.791Z,20.24
2018-08-23T01:52:16.505Z,20.22
2018-08-23T01:53:17.220Z,20.22
2018-08-23T01:54:17.935Z,20.24
2018-08-23T01:55:18.650Z,20.18
2018-08-23T01:56:19.378Z,20.13
2018-08-23T01:57:20.097Z,20.16
2018-08-23T01:58:20.810Z,20.09
2018-08-23T01:59:21.526Z,20.16
2018-08-23T02:00:22.241Z,19.99
2018-08-23T02:01:22.957Z,20.04
2018-08-23T02:02:23.678Z,20.09
2018-08-23T02:03:24.399Z,20.09
2018-08-23T02:04:25.116Z,20.09
2018-08-23T02:05:25.832Z,19.95
2018-08-23T02:06:26.548Z,19.95
2018-08-23T02:07:27.277Z,20.00
2018-08-23T02:08:28.005Z,20.02
2018-08-23T02:09:28.720Z,20.00
2018-08-23T02:10:29.451Z,19.99
2018-08-23T02:11:30.176Z,19.94
2018-08-23T02:12:30.891Z,19.99
2018-08-23T02:13:31.606Z,19.95
2018-08-23T02:14:32.321Z,19.99
2018-08-23T02:15:33.048Z,19.92
2018-08-23T02:16:33.762Z,19.94
2018-08-23T02:17:34.475Z,19.88
2018-08-23T02:18:35.202Z,19.85
2018-08-23T02:19:35.916Z,19.84
2018-08-23T02:20:36.632Z,19.91
2018-08-23T02:21:37.351Z,19.86
2018-08-23T02:22:38.090Z,19.89
2018-08-23T02:23:38.792Z,19.91
2018-08-23T02:24:39.507Z,19.86
2018-08-23T02:25:40.223Z,19.76
2018-08-23T02:26:40.938Z,19.79
2018-08-23T02:27:41.666Z,19.74
2018-08-23T02:28:42.380Z,19.70
2018-08-23T02:29:43.094Z,19.74
2018-08-23T02:30:43.809Z,19.66
2018-08-23T02:31:44.537Z,19.64
2018-08-23T02:32:45.251Z,19.70
2018-08-23T02:33:45.970Z,19.69
2018-08-23T02:34:46.683Z,19.66
2018-08-23T02:35:47.398Z,19.58
2018-08-23T02:36:48.128Z,19.67
2018-08-23T02:37:48.839Z,19.67
2018-08-23T02:38:49.560Z,19.59
2018-08-23T02:39:50.282Z,19.55
2018-08-23T02:40:50.998Z,19.51
2018-08-23T02:41:51.713Z,19.49
2018-08-23T02:42:52.449Z,19.52
2018-08-23T02:43:53.157Z,19.47
2018-08-23T02:44:53.873Z,19.44
2018-08-23T02:45:54.591Z,19.45
2018-08-23T02:46:55.316Z,19.48
2018-08-23T02:47:56.044Z,19.39
2018-08-23T02:48:56.758Z,19.39
2018-08-23T02:49:57.471Z,19.36
2018-08-23T02:50:58.186Z,19.36
2018-08-23T02:51:58.901Z,19.48
2018-08-23T02:52:59.629Z,19.45
2018-08-23T02:54:00.397Z,19.39
2018-08-23T02:55:01.071Z,19.33
2018-08-23T02:56:01.787Z,19.37
2018-08-23T02:57:02.507Z,19.37
2018-08-23T02:58:03.218Z,19.34
2018-08-23T02:59:03.934Z,19.33
2018-08-23T03:00:04.648Z,19.34
2018-08-23T03:01:05.363Z,19.31
2018-08-23T03:02:06.077Z,19.31
2018-08-23T03:03:06.805Z,19.31
2018-08-23T03:04:07.523Z,19.27
2018-08-23T03:05:08.240Z,19.29
2018-08-23T03:06:08.957Z,19.22
2018-08-23T03:07:09.686Z,19.27
2018-08-23T03:08:10.400Z,19.24
2018-08-23T03:09:11.117Z,19.31
2018-08-23T03:10:11.832Z,19.27
2018-08-23T03:11:12.545Z,19.15
2018-08-23T03:12:13.276Z,19.15
2018-08-23T03:13:13.990Z,19.22
2018-08-23T03:14:14.781Z,19.14
2018-08-23T03:15:15.428Z,19.14
2018-08-23T03:16:16.141Z,19.14
2018-08-23T03:17:16.858Z,19.15
2018-08-23T03:18:17.572Z,19.12
2018-08-23T03:19:18.285Z,19.14
2018-08-23T03:20:19.013Z,19.16
2018-08-23T03:21:19.741Z,19.11
2018-08-23T03:22:20.456Z,19.14
2018-08-23T03:23:21.173Z,19.16
2018-08-23T03:24:21.900Z,19.14
2018-08-23T03:25:22.614Z,19.16
2018-08-23T03:26:23.330Z,19.15
2018-08-23T03:27:24.044Z,19.15
2018-08-23T03:28:24.760Z,19.18
2018-08-23T03:29:25.475Z,19.12
2018-08-23T03:30:26.197Z,19.11
2018-08-23T03:31:26.916Z,19.12
2018-08-23T03:32:27.649Z,19.14
2018-08-23T03:33:28.370Z,19.08
2018-08-23T03:34:29.086Z,19.00
2018-08-23T03:35:29.813Z,19.07
2018-08-23T03:36:30.541Z,19.09
2018-08-23T03:37:31.261Z,19.08
2018-08-23T03:38:31.980Z,19.09
2018-08-23T03:39:32.707Z,19.09
2018-08-23T03:40:33.430Z,19.07
2018-08-23T03:41:34.135Z,19.08
2018-08-23T03:42:34.851Z,19.00
2018-08-23T03:43:35.577Z,18.95
2018-08-23T03:44:36.293Z,19.00
2018-08-23T03:45:37.009Z,18.98
2018-08-23T03:46:37.733Z,18.98
2018-08-23T03:47:38.493Z,19.02
2018-08-23T03:48:39.166Z,18.92
2018-08-23T03:49:39.879Z,18.95
2018-08-23T03:50:40.594Z,18.89
2018-08-23T03:51:41.308Z,18.95
2018-08-23T03:52:42.044Z,18.89
2018-08-23T03:53:42.764Z,18.84
2018-08-23T03:54:43.478Z,18.86
2018-08-23T03:55:44.193Z,18.84
2018-08-23T03:56:44.906Z,18.81
2018-08-23T03:57:45.620Z,18.83
2018-08-23T03:58:46.335Z,18.77
2018-08-23T03:59:47.051Z,18.74
2018-08-23T04:00:47.763Z,18.74
2018-08-23T04:01:48.477Z,18.81
2018-08-23T04:02:49.192Z,18.77
2018-08-23T04:03:49.908Z,18.74
2018-08-23T04:04:50.621Z,18.74
2018-08-23T04:05:51.335Z,18.62
2018-08-23T04:06:52.052Z,18.73
2018-08-23T04:07:52.772Z,18.71
2018-08-23T04:08:53.499Z,18.68
2018-08-23T04:09:54.216Z,18.68
2018-08-23T04:10:54.933Z,18.70
2018-08-23T04:11:55.660Z,18.70
2018-08-23T04:12:56.376Z,18.60
2018-08-23T04:13:57.093Z,18.70
2018-08-23T04:14:57.809Z,18.70
2018-08-23T04:15:58.536Z,18.70
2018-08-23T04:16:59.252Z,18.70
2018-08-23T04:17:59.970Z,18.73
2018-08-23T04:19:00.698Z,18.66
2018-08-23T04:20:01.413Z,18.81
2018-08-23T04:21:02.141Z,18.75
2018-08-23T04:22:02.856Z,18.70
2018-08-23T04:23:03.573Z,18.71
2018-08-23T04:24:04.290Z,18.70
2018-08-23T04:25:05.021Z,18.68
2018-08-23T04:26:05.735Z,18.73
2018-08-23T04:27:06.454Z,18.70
2018-08-23T04:28:07.169Z,18.73
2018-08-23T04:29:07.885Z,18.70
2018-08-23T04:30:08.602Z,18.71
2018-08-23T04:31:09.333Z,18.73
2018-08-23T04:32:10.051Z,18.60
2018-08-23T04:33:10.780Z,18.60
2018-08-23T04:34:11.500Z,18.62
2018-08-23T04:35:12.236Z,18.71
2018-08-23T04:36:12.943Z,18.65
2018-08-23T04:37:13.657Z,18.65
2018-08-23T04:38:14.373Z,18.70
2018-08-23T04:39:15.090Z,18.66
2018-08-23T04:40:15.822Z,18.71
2018-08-23T04:41:16.537Z,18.66
2018-08-23T04:42:17.257Z,18.73
2018-08-23T04:43:18.027Z,18.75
2018-08-23T04:44:18.694Z,18.70
2018-08-23T04:45:19.409Z,18.65
2018-08-23T04:46:20.126Z,18.73
2018-08-23T04:47:20.843Z,18.65
2018-08-23T04:48:21.579Z,18.71
2018-08-23T04:49:22.295Z,18.71
2018-08-23T04:50:23.011Z,18.65
2018-08-23T04:51:23.731Z,18.66
2018-08-23T04:52:24.449Z,18.66
2018-08-23T04:53:25.165Z,18.62
2018-08-23T04:54:25.881Z,18.74
2018-08-23T04:55:26.599Z,18.73
2018-08-23T04:56:27.317Z,18.62
2018-08-23T04:57:28.034Z,18.71
2018-08-23T04:58:28.771Z,18.74
2018-08-23T04:59:29.468Z,18.71
2018-08-23T05:00:30.200Z,18.70
2018-08-23T05:01:30.918Z,18.62
2018-08-23T05:02:31.636Z,18.63
2018-08-23T05:03:32.358Z,18.73
2018-08-23T05:04:33.088Z,18.65
2018-08-23T05:05:33.807Z,18.78
2018-08-23T05:06:34.526Z,18.70
2018-08-23T05:07:35.248Z,18.63
2018-08-23T05:08:35.963Z,18.66
2018-08-23T05:09:36.682Z,18.65
2018-08-23T05:10:37.400Z,18.73
2018-08-23T05:11:38.120Z,18.73
2018-08-23T05:12:38.839Z,18.65
2018-08-23T05:13:39.570Z,18.65
2018-08-23T05:14:40.290Z,18.66
2018-08-23T05:15:41.009Z,18.73
2018-08-23T05:16:41.727Z,18.75
2018-08-23T05:17:42.445Z,18.70
2018-08-23T05:18:43.166Z,18.71
2018-08-23T05:19:43.885Z,18.71
2018-08-23T05:20:44.603Z,18.75
2018-08-23T05:21:45.327Z,18.75
2018-08-23T05:22:46.056Z,18.73
2018-08-23T05:23:46.777Z,18.74
2018-08-23T05:24:47.516Z,18.84
2018-08-23T05:25:48.242Z,18.83
2018-08-23T05:26:48.976Z,18.84
2018-08-23T05:27:49.695Z,18.75
2018-08-23T05:28:50.413Z,18.83
2018-08-23T05:29:51.173Z,18.86
2018-08-23T05:30:51.855Z,18.89
2018-08-23T05:31:52.575Z,18.92
2018-08-23T05:32:53.308Z,18.98
2018-08-23T05:33:54.026Z,18.96
2018-08-23T05:34:54.745Z,18.99
2018-08-23T05:35:55.464Z,18.98
2018-08-23T05:36:56.184Z,18.98
2018-08-23T05:37:56.903Z,19.09
2018-08-23T05:38:57.625Z,19.09
2018-08-23T05:39:58.352Z,19.07
2018-08-23T05:40:59.073Z,19.08
2018-08-23T05:41:59.802Z,19.14
2018-08-23T05:43:00.533Z,19.12
2018-08-23T05:44:01.253Z,19.15
2018-08-23T05:45:01.986Z,19.18
2018-08-23T05:46:02.704Z,19.22
2018-08-23T05:47:03.424Z,19.26
2018-08-23T05:48:04.144Z,19.29
2018-08-23T05:49:04.863Z,19.31
2018-08-23T05:50:05.582Z,19.37
2018-08-23T05:51:06.305Z,19.40
2018-08-23T05:52:07.026Z,19.48
2018-08-23T05:53:07.746Z,19.49
2018-08-23T05:54:08.465Z,19.54
2018-08-23T05:55:09.187Z,19.58
2018-08-23T05:56:09.922Z,19.47
2018-08-23T05:57:10.652Z,19.52
2018-08-23T05:58:11.384Z,19.52
2018-08-23T05:59:12.104Z,19.63
2018-08-23T06:00:12.837Z,19.59
2018-08-23T06:01:13.558Z,19.56
2018-08-23T06:02:14.279Z,19.63
2018-08-23T06:03:15.001Z,19.58
2018-08-23T06:04:15.722Z,19.74
2018-08-23T06:05:16.447Z,19.82
2018-08-23T06:06:17.164Z,19.77
2018-08-23T06:07:17.897Z,19.84
2018-08-23T06:08:18.644Z,19.91
2018-08-23T06:09:19.340Z,19.96
2018-08-23T06:10:20.060Z,20.02
2018-08-23T06:11:20.780Z,20.00
2018-08-23T06:12:21.529Z,20.10
2018-08-23T06:13:22.268Z,20.11
2018-08-23T06:14:22.991Z,20.31
2018-08-23T06:15:23.712Z,20.31
2018-08-23T06:16:24.433Z,20.29
2018-08-23T06:17:25.155Z,20.24
2018-08-23T06:18:25.878Z,20.28
2018-08-23T06:19:26.609Z,20.25
2018-08-23T06:20:27.332Z,20.29
2018-08-23T06:21:28.052Z,20.41
2018-08-23T06:22:28.787Z,20.48
2018-08-23T06:23:29.511Z,20.55
2018-08-23T06:24:30.233Z,20.62
2018-08-23T06:25:30.982Z,20.67
2018-08-23T06:26:31.679Z,20.62
2018-08-23T06:27:32.420Z,20.63
2018-08-23T06:28:33.123Z,20.70
2018-08-23T06:29:33.856Z,20.70
2018-08-23T06:30:34.576Z,20.67
2018-08-23T06:31:35.298Z,20.66
2018-08-23T06:32:36.020Z,20.69
2018-08-23T06:33:36.840Z,20.60
2018-08-23T06:34:37.473Z,20.70
2018-08-23T06:35:38.259Z,20.62
2018-08-23T06:36:38.917Z,20.69
2018-08-23T06:37:39.640Z,20.67
2018-08-23T06:38:40.387Z,20.77
2018-08-23T06:39:41.093Z,20.84
2018-08-23T06:40:41.819Z,20.80
2018-08-23T06:41:42.542Z,20.80
2018-08-23T06:42:43.257Z,20.88
2018-08-23T06:43:43.978Z,20.96
2018-08-23T06:44:44.704Z,20.97
2018-08-23T06:45:45.439Z,21.03
2018-08-23T06:46:46.160Z,21.11
2018-08-23T06:47:46.898Z,21.22
2018-08-23T06:48:47.624Z,21.32
2018-08-23T06:49:48.360Z,21.18
2018-08-23T06:50:49.077Z,21.29
2018-08-23T06:51:49.812Z,21.20
2018-08-23T06:52:50.536Z,21.33
2018-08-23T06:53:51.261Z,21.32
2018-08-23T06:54:51.985Z,21.29
2018-08-23T06:55:52.722Z,21.37
2018-08-23T06:56:53.436Z,21.55
2018-08-23T06:57:54.174Z,21.64
2018-08-23T06:58:54.936Z,21.75
2018-08-23T06:59:55.641Z,21.79
2018-08-23T07:00:56.368Z,21.89
2018-08-23T07:01:57.094Z,21.87
2018-08-23T07:02:57.816Z,22.00
2018-08-23T07:03:58.556Z,22.10
2018-08-23T07:04:59.295Z,22.11
2018-08-23T07:06:00.032Z,22.20
2018-08-23T07:07:00.794Z,22.44
2018-08-23T07:08:01.488Z,22.54
2018-08-23T07:09:02.225Z,22.72
2018-08-23T07:10:02.954Z,22.43
2018-08-23T07:11:03.679Z,22.41
2018-08-23T07:12:04.409Z,22.26
2018-08-23T07:13:05.151Z,22.18
2018-08-23T07:14:05.881Z,22.17
2018-08-23T07:15:06.614Z,22.23
2018-08-23T07:16:07.356Z,22.53
2018-08-23T07:17:08.149Z,22.62
2018-08-23T07:18:08.820Z,22.87
2018-08-23T07:19:09.548Z,23.12
2018-08-23T07:20:10.291Z,23.24
2018-08-23T07:21:11.022Z,23.32
2018-08-23T07:22:11.752Z,23.43
2018-08-23T07:23:12.483Z,23.71
2018-08-23T07:24:13.256Z,23.73
2018-08-23T07:25:13.975Z,23.86
2018-08-23T07:26:14.733Z,23.77
2018-08-23T07:27:15.459Z,23.62
2018-08-23T07:28:16.193Z,23.73
2018-08-23T07:29:16.951Z,23.55
2018-08-23T07:30:17.771Z,23.71
2018-08-23T07:31:18.416Z,23.92
2018-08-23T07:32:19.165Z,24.17
2018-08-23T07:33:19.905Z,24.21
2018-08-23T07:34:20.656Z,24.26
2018-08-23T07:35:21.392Z,24.13
2018-08-23T07:36:22.120Z,24.23
2018-08-23T07:37:22.853Z,24.35
2018-08-23T07:38:23.582Z,24.47
2018-08-23T07:39:24.313Z,24.80
2018-08-23T07:40:25.043Z,24.98
2018-08-23T07:41:25.773Z,25.14
2018-08-23T07:42:26.536Z,25.29
2018-08-23T07:43:27.246Z,25.36
2018-08-23T07:44:27.977Z,25.36
2018-08-23T07:45:28.707Z,25.43
2018-08-23T07:46:29.437Z,25.65
2018-08-23T07:47:30.168Z,25.59
2018-08-23T07:48:30.920Z,25.41
2018-08-23T07:49:31.654Z,25.31
2018-08-23T07:50:32.384Z,25.16
2018-08-23T07:51:33.119Z,25.08
2018-08-23T07:52:33.903Z,25.25
2018-08-23T07:53:34.594Z,25.55
2018-08-23T07:54:35.320Z,25.80
2018-08-23T07:55:36.052Z,25.81
2018-08-23T07:56:36.781Z,25.62
2018-08-23T07:57:37.512Z,25.43
2018-08-23T07:58:38.246Z,25.29
2018-08-23T07:59:38.976Z,25.36
2018-08-23T08:00:39.707Z,25.60
2018-08-23T08:01:40.438Z,25.72
2018-08-23T08:02:41.169Z,25.84
2018-08-23T08:03:41.914Z,25.99
2018-08-23T08:04:42.657Z,26.18
2018-08-23T08:05:43.389Z,26.41
2018-08-23T08:06:44.137Z,26.58
2018-08-23T08:07:44.879Z,26.59
2018-08-23T08:08:45.613Z,26.58
2018-08-23T08:09:46.345Z,26.58
2018-08-23T08:10:47.077Z,26.85
2018-08-23T08:11:47.822Z,26.81
2018-08-23T08:12:48.567Z,26.96
2018-08-23T08:13:49.299Z,27.08
2018-08-23T08:14:50.115Z,27.26
2018-08-23T08:15:50.768Z,27.36
2018-08-23T08:16:51.501Z,27.75
2018-08-23T08:17:52.234Z,27.95
2018-08-23T08:18:52.967Z,28.39
2018-08-23T08:19:53.700Z,28.29
2018-08-23T08:20:54.497Z,28.04
2018-08-23T08:21:55.169Z,28.23
2018-08-23T08:22:55.913Z,27.89
2018-08-23T08:23:56.637Z,28.05
2018-08-23T08:24:57.385Z,28.12
2018-08-23T08:25:58.118Z,28.56
2018-08-23T08:26:58.852Z,28.89
2018-08-23T08:27:59.588Z,28.97
2018-08-23T08:29:00.333Z,28.64
2018-08-23T08:30:01.078Z,28.62
2018-08-23T08:31:01.826Z,28.00
2018-08-23T08:32:02.558Z,27.75
2018-08-23T08:33:03.305Z,27.58
2018-08-23T08:34:04.024Z,27.29
2018-08-23T08:35:04.762Z,27.47
2018-08-23T08:36:05.495Z,27.35
2018-08-23T08:37:06.225Z,27.39
2018-08-23T08:38:06.957Z,27.65
2018-08-23T08:39:07.691Z,27.74
2018-08-23T08:40:08.426Z,27.85
2018-08-23T08:41:09.160Z,27.90
2018-08-23T08:42:09.894Z,27.80
2018-08-23T08:43:10.626Z,27.63
2018-08-23T08:44:11.361Z,27.37
2018-08-23T08:45:12.111Z,27.15
2018-08-23T08:46:12.855Z,27.35
2018-08-23T08:47:13.589Z,27.33
2018-08-23T08:48:14.323Z,27.00
2018-08-23T08:49:15.054Z,26.80
2018-08-23T08:50:15.799Z,27.02
2018-08-23T08:51:16.541Z,26.93
2018-08-23T08:52:17.270Z,27.05
2018-08-23T08:53:18.004Z,27.32
2018-08-23T08:54:18.738Z,27.40
2018-08-23T08:55:19.473Z,27.64
2018-08-23T08:56:20.207Z,27.65
2018-08-23T08:57:21.036Z,27.89
2018-08-23T08:58:21.683Z,28.11
2018-08-23T08:59:22.418Z,28.15
2018-08-23T09:00:23.152Z,28.56
2018-08-23T09:01:23.884Z,28.93
2018-08-23T09:02:24.619Z,28.93
2018-08-23T09:03:25.353Z,28.70
2018-08-23T09:04:26.089Z,28.69
2018-08-23T09:05:26.823Z,28.94
2018-08-23T09:06:27.558Z,29.23
2018-08-23T09:07:28.306Z,29.01
2018-08-23T09:08:29.043Z,29.26
2018-08-23T09:09:29.777Z,29.12
2018-08-23T09:10:30.513Z,28.91
2018-08-23T09:11:31.253Z,28.64
2018-08-23T09:12:32.001Z,28.62
2018-08-23T09:13:32.737Z,28.72
2018-08-23T09:14:33.486Z,29.01
2018-08-23T09:15:34.221Z,28.81
2018-08-23T09:16:34.960Z,28.60
2018-08-23T09:17:35.700Z,28.47
2018-08-23T09:18:36.486Z,28.39
2018-08-23T09:19:37.184Z,28.10
2018-08-23T09:20:38.029Z,28.47
2018-08-23T09:21:38.665Z,28.72
2018-08-23T09:22:39.406Z,29.12
2018-08-23T09:23:40.146Z,29.35
2018-08-23T09:24:40.899Z,29.79
2018-08-23T09:25:41.635Z,29.78
2018-08-23T09:26:42.372Z,29.66
2018-08-23T09:27:43.114Z,29.34
2018-08-23T09:28:43.855Z,29.39
2018-08-23T09:29:44.591Z,29.56
2018-08-23T09:30:45.333Z,29.19
2018-08-23T09:31:46.073Z,28.91
2018-08-23T09:32:46.818Z,28.94
2018-08-23T09:33:47.569Z,29.04
2018-08-23T09:34:48.310Z,29.20
2018-08-23T09:35:49.051Z,29.59
2018-08-23T09:36:49.804Z,29.86
2018-08-23T09:37:50.596Z,30.03
2018-08-23T09:38:51.304Z,29.61
2018-08-23T09:39:52.048Z,29.44
2018-08-23T09:40:52.794Z,29.31
2018-08-23T09:41:53.553Z,29.24
2018-08-23T09:42:54.348Z,29.23
2018-08-23T09:43:55.040Z,29.13
2018-08-23T09:44:55.784Z,29.45
2018-08-23T09:45:56.528Z,29.71
2018-08-23T09:46:57.282Z,29.57
2018-08-23T09:47:58.036Z,29.47
2018-08-23T09:48:58.777Z,29.17
2018-08-23T09:49:59.579Z,28.88
2018-08-23T09:51:00.290Z,29.01
2018-08-23T09:52:01.013Z,29.17
2018-08-23T09:53:01.755Z,28.66
2018-08-23T09:54:02.491Z,28.59
2018-08-23T09:55:03.237Z,28.19
2018-08-23T09:56:03.974Z,28.11
2018-08-23T09:57:04.708Z,28.02
2018-08-23T09:58:05.436Z,27.98
2018-08-23T09:59:06.179Z,27.74
2018-08-23T10:00:06.909Z,28.12
2018-08-23T10:01:07.654Z,28.56
2018-08-23T10:02:08.387Z,28.59
2018-08-23T10:03:09.134Z,29.32
2018-08-23T10:04:09.872Z,29.44
2018-08-23T10:05:10.612Z,29.17
2018-08-23T10:06:11.345Z,29.60
2018-08-23T10:07:12.080Z,29.45
2018-08-23T10:08:12.812Z,29.14
2018-08-23T10:09:13.557Z,28.69
2018-08-23T10:10:14.290Z,28.59
2018-08-23T10:11:15.072Z,28.37
2018-08-23T10:12:15.758Z,28.23
2018-08-23T10:13:16.502Z,28.48
2018-08-23T10:14:17.236Z,28.56
2018-08-23T10:15:17.969Z,28.60
2018-08-23T10:16:18.704Z,28.48
2018-08-23T10:17:19.450Z,28.25
2018-08-23T10:18:20.182Z,28.23
2018-08-23T10:19:20.926Z,28.19
2018-08-23T10:20:21.657Z,28.23
2018-08-23T10:21:22.408Z,28.25
2018-08-23T10:22:23.135Z,28.38
2018-08-23T10:23:23.868Z,28.57
2018-08-23T10:24:24.616Z,28.62
2018-08-23T10:25:25.351Z,28.97
2018-08-23T10:26:26.091Z,29.42
2018-08-23T10:27:26.831Z,29.75
2018-08-23T10:28:27.580Z,30.10
2018-08-23T10:29:28.315Z,30.34
2018-08-23T10:30:29.062Z,30.37
2018-08-23T10:31:29.795Z,29.88
2018-08-23T10:32:30.532Z,29.45
2018-08-23T10:33:31.279Z,29.14
2018-08-23T10:34:32.013Z,28.96
2018-08-23T10:35:32.759Z,29.27
2018-08-23T10:36:33.504Z,29.57
2018-08-23T10:37:34.237Z,29.41
2018-08-23T10:38:34.975Z,29.32
2018-08-23T10:39:35.716Z,29.59
2018-08-23T10:40:36.466Z,29.76
2018-08-23T10:41:37.199Z,30.27
2018-08-23T10:42:37.936Z,30.72
2018-08-23T10:43:38.670Z,30.84
2018-08-23T10:44:39.490Z,30.97
2018-08-23T10:45:40.151Z,30.78
2018-08-23T10:46:40.895Z,30.46
2018-08-23T10:47:41.641Z,30.39
2018-08-23T10:48:42.383Z,30.50
2018-08-23T10:49:43.141Z,30.53
2018-08-23T10:50:43.911Z,31.02
2018-08-23T10:51:44.624Z,31.62
2018-08-23T10:52:45.365Z,31.93
2018-08-23T10:53:46.109Z,31.77
2018-08-23T10:54:46.854Z,31.49
2018-08-23T10:55:47.604Z,31.20
2018-08-23T10:56:48.363Z,31.02
2018-08-23T10:57:49.108Z,30.57
2018-08-23T10:58:49.845Z,31.44
2018-08-23T10:59:50.587Z,31.84
2018-08-23T11:00:51.332Z,31.90
2018-08-23T11:01:52.087Z,31.58
2018-08-23T11:02:52.829Z,31.28
2018-08-23T11:03:53.584Z,31.47
2018-08-23T11:04:54.325Z,31.42
2018-08-23T11:05:55.066Z,31.56
2018-08-23T11:06:55.823Z,31.80
2018-08-23T11:07:56.565Z,32.00
2018-08-23T11:08:57.306Z,31.73
2018-08-23T11:09:58.046Z,31.12
2018-08-23T11:10:58.809Z,30.88
2018-08-23T11:11:59.544Z,30.53
2018-08-23T11:13:00.281Z,30.65
2018-08-23T11:14:01.025Z,30.66
2018-08-23T11:15:01.767Z,30.88
2018-08-23T11:16:02.524Z,30.78
2018-08-23T11:17:03.407Z,30.90
2018-08-23T11:18:04.027Z,30.73
2018-08-23T11:19:04.768Z,31.12
2018-08-23T11:20:05.511Z,31.80
2018-08-23T11:21:06.251Z,31.94
2018-08-23T11:22:06.994Z,32.27
2018-08-23T11:23:07.742Z,32.71
2018-08-23T11:24:08.473Z,32.34
2018-08-23T11:25:09.215Z,31.93
2018-08-23T11:26:09.967Z,31.71
2018-08-23T11:27:10.704Z,31.52
2018-08-23T11:28:11.444Z,31.55
2018-08-23T11:29:12.183Z,31.40
2018-08-23T11:30:12.925Z,31.17
2018-08-23T11:31:13.665Z,30.73
2018-08-23T11:32:14.408Z,30.51
2018-08-23T11:34:30.763Z,31.15
2018-08-23T11:35:31.506Z,31.07
2018-08-23T11:36:32.262Z,30.70
2018-08-23T11:37:33.006Z,31.00
2018-08-23T11:38:33.750Z,31.36
2018-08-23T11:39:34.492Z,31.85
2018-08-23T11:40:35.241Z,32.16
2018-08-23T11:41:35.992Z,32.03
2018-08-23T11:42:36.737Z,31.80
2018-08-23T11:43:37.488Z,31.46
2018-08-23T11:44:38.247Z,30.99
2018-08-23T11:45:39.005Z,31.42
2018-08-23T11:46:39.744Z,31.43
2018-08-23T11:47:40.488Z,31.33
2018-08-23T11:48:41.296Z,30.88
2018-08-23T11:49:41.972Z,30.57
2018-08-23T11:50:42.729Z,30.21
2018-08-23T11:51:43.466Z,30.25
2018-08-23T11:52:44.203Z,30.15
2018-08-23T11:53:45.105Z,30.08
2018-08-23T11:54:45.669Z,29.75
2018-08-23T11:55:46.404Z,29.35
2018-08-23T11:56:47.139Z,29.19
2018-08-23T11:57:47.871Z,29.50
2018-08-23T11:58:48.615Z,29.76
2018-08-23T11:59:49.347Z,29.42
2018-08-23T12:00:50.079Z,29.22
2018-08-23T12:01:50.808Z,28.84
2018-08-23T12:02:51.554Z,28.96
2018-08-23T12:04:44.950Z,29.19
2018-08-23T12:05:45.699Z,29.42
2018-08-23T12:06:46.433Z,30.18
2018-08-23T12:07:47.194Z,30.63
2018-08-23T12:08:47.910Z,31.06
2018-08-23T12:09:48.676Z,30.68
2018-08-23T12:10:49.401Z,30.51
2018-08-23T12:11:50.145Z,30.24
2018-08-23T12:12:50.878Z,29.87
2018-08-23T12:13:51.609Z,30.25
2018-08-23T12:14:52.343Z,30.39
2018-08-23T12:15:53.079Z,30.39
2018-08-23T12:16:53.856Z,29.93
2018-08-23T12:17:54.540Z,29.78
2018-08-23T12:18:55.274Z,29.51
2018-08-23T12:19:56.004Z,29.39
2018-08-23T12:20:56.734Z,29.23
2018-08-23T12:21:57.465Z,28.91
2018-08-23T12:22:58.212Z,28.78
2018-08-23T12:23:58.942Z,28.78
2018-08-23T12:24:59.674Z,29.14
2018-08-23T12:26:00.523Z,29.41
2018-08-23T12:27:01.158Z,29.54
2018-08-23T12:28:01.903Z,29.79
2018-08-23T12:29:02.637Z,30.50
2018-08-23T12:30:03.369Z,31.00
2018-08-23T12:31:04.110Z,31.25
2018-08-23T12:32:04.861Z,31.44
2018-08-23T12:33:05.567Z,31.66
2018-08-23T12:34:06.313Z,31.92
2018-08-23T12:35:07.058Z,31.84
2018-08-23T12:36:07.792Z,31.80
2018-08-23T12:37:08.530Z,31.58
2018-08-23T12:38:09.275Z,31.65
2018-08-23T12:39:10.003Z,31.00
2018-08-23T12:40:10.736Z,30.72
2018-08-23T12:41:11.466Z,30.47
2018-08-23T12:42:12.305Z,30.51
2018-08-23T12:43:12.944Z,30.46
2018-08-23T12:44:13.675Z,30.50
2018-08-23T12:45:14.407Z,30.97
2018-08-23T12:46:15.159Z,31.61
2018-08-23T12:47:15.885Z,32.18
2018-08-23T12:48:16.622Z,32.30
2018-08-23T12:49:17.369Z,32.03
2018-08-23T12:50:18.110Z,32.01
2018-08-23T12:51:18.862Z,32.09
2018-08-23T12:52:19.601Z,31.92
2018-08-23T12:53:20.377Z,31.89
2018-08-23T12:54:21.083Z,31.42
2018-08-23T12:55:21.823Z,31.03
2018-08-23T12:56:22.584Z,30.92
2018-08-23T12:57:23.304Z,30.80
2018-08-23T12:58:24.040Z,30.90
2018-08-23T12:59:24.773Z,30.54
2018-08-23T13:00:25.519Z,30.61
2018-08-23T13:01:26.301Z,30.81
2018-08-23T13:02:27.062Z,31.22
2018-08-23T13:03:27.770Z,32.04
2018-08-23T13:04:28.478Z,32.33